createdAt,value
2022-10-09T00:00:12.531Z,99.9
2022-10-09T00:02:14.324Z,99.9
2022-10-09T00:04:15.993Z,99.9
2022-10-09T00:06:17.762Z,99.9
2022-10-09T00:08:19.505Z,99.9
2022-10-09T00:10:24.465Z,99.9
2022-10-09T00:12:26.261Z,99.9
2022-10-09T00:14:27.996Z,99.9
2022-10-09T00:16:29.823Z,99.9
2022-10-09T00:18:31.473Z,99.9
2022-10-09T00:24:39.970Z,99.9
2022-10-09T00:26:41.730Z,99.9
2022-10-09T00:28:43.559Z,99.9
2022-10-09T00:31:47.677Z,99.9
2022-10-09T00:35:51.159Z,99.9
2022-10-09T00:41:59.617Z,99.9
2022-10-09T00:44:01.368Z,99.9
2022-10-09T00:46:03.270Z,99.9
2022-10-09T00:48:04.874Z,99.9
2022-10-09T00:50:06.576Z,99.9
2022-10-09T00:52:11.558Z,99.9
2022-10-09T00:54:13.281Z,99.9
2022-10-09T00:56:15.011Z,99.9
2022-10-09T00:58:16.769Z,99.9
2022-10-09T01:00:18.490Z,99.9
2022-10-09T01:02:20.352Z,99.9
2022-10-09T01:04:21.966Z,99.9
2022-10-09T01:06:26.931Z,99.9
2022-10-09T01:08:28.672Z,99.9
2022-10-09T01:10:30.425Z,99.9
2022-10-09T01:12:32.140Z,99.9
2022-10-09T01:14:33.886Z,99.9
2022-10-09T01:16:35.629Z,99.9
2022-10-09T01:18:37.349Z,99.9
2022-10-09T01:20:42.321Z,99.9
2022-10-09T01:22:44.058Z,99.9
2022-10-09T01:24:45.811Z,99.9
2022-10-09T01:25:48.284Z,99.9
2022-10-09T01:27:50.024Z,99.9
2022-10-09T01:29:51.746Z,99.9
2022-10-09T01:31:55.165Z,99.9
2022-10-09T01:33:59.990Z,99.9
2022-10-09T01:36:01.708Z,99.9
2022-10-09T01:38:03.442Z,99.9
2022-10-09T01:40:05.198Z,99.9
2022-10-09T01:42:06.909Z,99.9
2022-10-09T01:44:08.660Z,99.9
2022-10-09T01:46:10.445Z,99.9
2022-10-09T01:48:15.343Z,99.9
2022-10-09T01:50:17.094Z,99.9
2022-10-09T01:52:18.806Z,99.9
2022-10-09T01:54:20.556Z,99.9
2022-10-09T01:56:22.281Z,99.9
2022-10-09T01:58:23.980Z,99.9
2022-10-09T02:10:37.605Z,99.9
2022-10-09T02:12:39.335Z,99.9
2022-10-09T02:14:41.068Z,99.9
2022-10-09T02:16:46.020Z,99.9
2022-10-09T02:18:47.752Z,99.9
2022-10-09T02:20:49.474Z,99.9
2022-10-09T02:21:54.541Z,99.9
2022-10-09T02:23:54.068Z,99.9
2022-10-09T02:25:55.774Z,99.9
2022-10-09T02:27:57.503Z,99.9
2022-10-09T02:30:02.497Z,99.9
2022-10-09T02:32:04.189Z,99.9
2022-10-09T02:34:06.009Z,99.9
2022-10-09T02:36:07.643Z,99.9
2022-10-09T02:38:09.383Z,99.9
2022-10-09T02:40:11.156Z,99.9
2022-10-09T02:42:12.818Z,99.9
2022-10-09T02:44:17.792Z,99.9
2022-10-09T02:46:19.600Z,99.9
2022-10-09T02:48:21.243Z,99.9
2022-10-09T02:50:22.974Z,99.9
2022-10-09T02:54:26.430Z,99.9
2022-10-09T02:56:28.171Z,99.9
2022-10-09T03:02:36.733Z,99.9
2022-10-09T03:04:38.276Z,99.9
2022-10-09T03:16:51.870Z,99.9
2022-10-09T03:19:20.556Z,99.9
2022-10-09T03:21:22.316Z,99.9
2022-10-09T03:23:24.001Z,99.9
2022-10-09T03:27:30.652Z,99.9
2022-10-09T03:29:32.386Z,99.9
2022-10-09T03:31:51.345Z,99.9
2022-10-09T03:33:35.816Z,99.9
2022-10-09T03:39:44.196Z,99.9
2022-10-09T03:41:45.929Z,99.9
2022-10-09T03:43:47.658Z,99.9
2022-10-09T03:49:52.789Z,99.9
2022-10-09T03:51:54.510Z,99.9
2022-10-09T03:53:59.477Z,99.9
2022-10-09T03:56:01.186Z,99.9
2022-10-09T03:58:02.878Z,99.9
2022-10-09T04:00:04.644Z,99.9
2022-10-09T04:02:06.373Z,99.9
2022-10-09T04:04:08.029Z,99.9
2022-10-09T04:06:09.761Z,99.9
2022-10-09T04:08:14.685Z,99.9
2022-10-09T04:10:16.390Z,99.9
2022-10-09T04:12:18.114Z,99.9
2022-10-09T04:15:22.283Z,99.9
2022-10-09T04:17:24.006Z,99.9
2022-10-09T04:19:25.701Z,99.9
2022-10-09T04:21:30.658Z,99.9
2022-10-09T04:23:32.369Z,99.9
2022-10-09T04:25:34.083Z,99.9
2022-10-09T04:27:35.760Z,99.9
2022-10-09T04:29:37.460Z,99.9
2022-10-09T04:31:39.277Z,99.9
2022-10-09T04:33:40.872Z,99.9
2022-10-09T04:35:45.805Z,99.9
2022-10-09T04:37:47.519Z,99.9
2022-10-09T04:39:49.237Z,99.9
2022-10-09T04:41:50.935Z,99.9
2022-10-09T04:43:52.636Z,99.9
2022-10-09T04:45:54.343Z,99.9
2022-10-09T04:47:56.034Z,99.9
2022-10-09T04:50:00.971Z,99.9
2022-10-09T04:52:02.657Z,99.9
2022-10-09T04:54:04.359Z,99.9
2022-10-09T04:56:06.054Z,99.9
2022-10-09T04:58:07.760Z,99.9
2022-10-09T05:04:16.073Z,99.9
2022-10-09T05:06:17.776Z,99.9
2022-10-09T05:09:21.942Z,99.9
2022-10-09T05:11:23.662Z,99.9
2022-10-09T05:13:25.324Z,99.9
2022-10-09T05:15:27.029Z,99.9
2022-10-09T05:17:32.076Z,99.9
2022-10-09T05:19:33.667Z,99.9
2022-10-09T05:21:35.349Z,99.9
2022-10-09T05:25:38.736Z,99.9
2022-10-09T05:27:40.415Z,99.9
2022-10-09T05:29:42.104Z,99.9
2022-10-09T05:31:49.475Z,99.9
2022-10-09T05:33:48.711Z,99.9
2022-10-09T05:35:50.413Z,99.9
2022-10-09T05:37:52.236Z,99.9
2022-10-09T05:39:53.784Z,99.9
2022-10-09T05:41:55.458Z,99.9
2022-10-09T05:43:57.138Z,99.9
2022-10-09T05:46:02.121Z,99.9
2022-10-09T05:48:03.753Z,99.9
2022-10-09T05:50:05.439Z,99.9
2022-10-09T05:52:07.126Z,99.9
2022-10-09T05:54:08.804Z,99.9
2022-10-09T05:56:10.489Z,99.9
2022-10-09T05:58:12.182Z,99.9
2022-10-09T06:00:17.129Z,99.9
2022-10-09T06:02:18.816Z,99.9
2022-10-09T06:04:20.454Z,99.9
2022-10-09T06:05:22.934Z,99.9
2022-10-09T06:07:24.603Z,99.9
2022-10-09T06:09:26.297Z,99.9
2022-10-09T06:11:28.021Z,99.9
2022-10-09T06:13:32.921Z,99.9
2022-10-09T06:21:39.639Z,99.9
2022-10-09T06:33:52.963Z,99.9
2022-10-09T06:36:00.798Z,99.9
2022-10-09T06:37:56.346Z,99.9
2022-10-09T06:42:02.947Z,99.9
2022-10-09T06:44:04.629Z,99.9
2022-10-09T06:46:06.417Z,99.9
2022-10-09T06:54:13.739Z,99.9
2022-10-09T06:56:18.649Z,99.9
2022-10-09T06:58:20.321Z,99.9
2022-10-09T07:00:22.050Z,99.9
2022-10-09T07:02:51.123Z,99.9
2022-10-09T07:04:52.416Z,99.9
2022-10-09T07:06:54.113Z,99.9
2022-10-09T07:08:59.038Z,99.9
2022-10-09T07:11:00.725Z,99.9
2022-10-09T07:13:02.426Z,99.9
2022-10-09T07:15:04.122Z,99.9
2022-10-09T07:17:05.829Z,99.9
2022-10-09T07:19:07.632Z,99.9
2022-10-09T07:21:09.339Z,99.9
2022-10-09T07:25:17.394Z,99.9
2022-10-09T07:27:19.092Z,99.9
2022-10-09T07:29:20.820Z,99.9
2022-10-09T07:31:22.584Z,99.9
2022-10-09T07:33:24.285Z,99.9
2022-10-09T07:35:26.027Z,99.9
2022-10-09T07:37:31.016Z,99.9
2022-10-09T07:39:32.780Z,99.9
2022-10-09T07:41:34.541Z,99.9
2022-10-09T07:43:36.322Z,99.9
2022-10-09T07:45:38.101Z,99.9
2022-10-09T07:47:39.872Z,99.9
2022-10-09T07:49:41.653Z,99.9
2022-10-09T07:51:46.713Z,99.9
2022-10-09T07:53:48.512Z,99.9
2022-10-09T07:55:50.294Z,99.9
2022-10-09T07:56:52.830Z,99.9
2022-10-09T07:58:54.641Z,99.9
2022-10-09T08:00:56.443Z,99.9
2022-10-09T08:02:58.340Z,99.9
2022-10-09T08:05:03.305Z,99.9
2022-10-09T08:07:05.108Z,99.9
2022-10-09T08:09:06.938Z,99.9
2022-10-09T08:11:08.739Z,99.9
2022-10-09T08:13:10.573Z,99.9
2022-10-09T08:15:12.383Z,99.9
2022-10-09T08:17:14.218Z,99.9
2022-10-09T08:19:19.264Z,99.9
2022-10-09T08:21:21.088Z,99.9
2022-10-09T08:23:22.928Z,99.9
2022-10-09T08:25:24.753Z,99.9
2022-10-09T08:27:26.579Z,99.9
2022-10-09T08:29:28.419Z,99.9
2022-10-09T08:31:30.309Z,99.9
2022-10-09T08:33:35.318Z,99.9
2022-10-09T08:35:37.153Z,99.9
2022-10-09T08:37:38.975Z,99.9
2022-10-09T08:39:40.828Z,99.9
2022-10-09T08:41:42.660Z,99.9
2022-10-09T08:43:44.504Z,99.9
2022-10-09T08:45:46.333Z,99.9
2022-10-09T08:47:51.430Z,99.9
2022-10-09T08:49:53.272Z,99.9
2022-10-09T08:51:55.108Z,99.9
2022-10-09T08:54:59.495Z,99.9
2022-10-09T08:57:01.338Z,99.9
2022-10-09T08:59:03.166Z,99.9
2022-10-09T09:03:10.351Z,99.9
2022-10-09T09:07:13.760Z,99.9
2022-10-09T09:11:21.403Z,99.9
2022-10-09T09:13:19.278Z,99.9
2022-10-09T09:15:24.522Z,99.9
2022-10-09T09:17:26.220Z,99.9
2022-10-09T09:19:28.036Z,99.9
2022-10-09T09:21:29.900Z,99.9
2022-10-09T09:23:31.720Z,99.9
2022-10-09T09:29:40.515Z,99.9
2022-10-09T09:31:42.372Z,99.9
2022-10-09T09:33:44.931Z,99.9
2022-10-09T09:35:46.033Z,99.9
2022-10-09T09:37:47.848Z,99.9
2022-10-09T09:41:51.541Z,99.9
2022-10-09T09:43:56.617Z,99.9
2022-10-09T09:45:58.457Z,99.9
2022-10-09T09:48:00.311Z,99.9
2022-10-09T09:49:05.869Z,99.9
2022-10-09T09:51:23.406Z,99.7
2022-10-09T09:57:18.327Z,99.2
2022-10-09T09:59:15.323Z,98.9
2022-10-09T10:03:18.988Z,96.9
2022-10-09T10:05:20.986Z,96.7
2022-10-09T10:07:22.671Z,96.4
2022-10-09T10:11:29.635Z,90.7
2022-10-09T10:13:31.469Z,83.7
2022-10-09T10:15:33.308Z,90.5
2022-10-09T10:17:35.143Z,90.8
2022-10-09T10:19:36.989Z,85.7
2022-10-09T10:21:38.813Z,86.8
2022-10-09T10:23:40.676Z,86.5
2022-10-09T10:25:45.764Z,83.9
2022-10-09T10:27:47.912Z,84.4
2022-10-09T10:29:49.455Z,85.3
2022-10-09T10:31:51.294Z,86
2022-10-09T10:33:53.130Z,88.2
2022-10-09T10:35:54.954Z,88.6
2022-10-09T10:37:56.800Z,89.4
2022-10-09T10:40:01.976Z,82.9
2022-10-09T10:42:03.743Z,87.9
2022-10-09T10:44:05.585Z,88.8
2022-10-09T10:46:34.357Z,85.1
2022-10-09T10:48:36.094Z,86.1
2022-10-09T10:50:37.906Z,78.4
2022-10-09T10:52:43.008Z,80.6
2022-10-09T10:56:46.690Z,59.2
2022-10-09T10:58:48.528Z,66.6
2022-10-09T11:00:50.453Z,67.7
2022-10-09T11:02:52.418Z,67.8
2022-10-09T11:04:54.032Z,66.7
2022-10-09T11:06:59.137Z,65.4
2022-10-09T11:09:00.966Z,63.8
2022-10-09T11:11:02.817Z,63.6
2022-10-09T11:13:04.889Z,63.4
2022-10-09T11:15:06.468Z,60.9
2022-10-09T11:19:10.152Z,53.7
2022-10-09T11:21:15.247Z,57.6
2022-10-09T11:23:17.070Z,57.4
2022-10-09T11:25:18.901Z,54.5
2022-10-09T11:27:20.724Z,57
2022-10-09T11:29:22.567Z,57.6
2022-10-09T11:33:26.257Z,57.8
2022-10-09T11:35:31.356Z,56.7
2022-10-09T11:39:35.012Z,54.7
2022-10-09T11:40:37.577Z,54.2
2022-10-09T11:42:39.387Z,53.3
2022-10-09T11:44:41.225Z,53.2
2022-10-09T11:46:43.059Z,52.7
2022-10-09T11:48:48.164Z,53.6
2022-10-09T11:50:49.995Z,55.2
2022-10-09T11:52:51.824Z,55
2022-10-09T11:54:53.656Z,52.4
2022-10-09T11:56:55.487Z,52.2
2022-10-09T11:58:57.319Z,52.4
2022-10-09T12:00:59.185Z,51.9
2022-10-09T12:03:04.235Z,52.3
2022-10-09T12:05:06.088Z,52.6
2022-10-09T12:07:07.915Z,52.8
2022-10-09T12:09:09.740Z,52.5
2022-10-09T12:11:11.574Z,53.1
2022-10-09T12:13:13.407Z,53.6
2022-10-09T12:15:15.249Z,53.2
2022-10-09T12:17:20.350Z,53.8
2022-10-09T12:19:22.166Z,54.9
2022-10-09T12:21:24.004Z,59.7
2022-10-09T12:23:27.441Z,60.1
2022-10-09T12:25:27.679Z,63.8
2022-10-09T12:27:29.499Z,64.4
2022-10-09T12:29:31.343Z,65.4
2022-10-09T12:31:36.598Z,65.5
2022-10-09T12:33:38.271Z,66.1
2022-10-09T12:35:40.251Z,59.5
2022-10-09T12:36:42.632Z,58.8
2022-10-09T12:38:44.482Z,58.8
2022-10-09T12:40:46.319Z,58.6
2022-10-09T12:46:55.083Z,57.9
2022-10-09T12:48:56.924Z,57.7
2022-10-09T12:50:58.748Z,57.6
2022-10-09T12:53:00.604Z,56.4
2022-10-09T12:55:02.437Z,55.3
2022-10-09T12:57:04.264Z,55.6
2022-10-09T12:59:09.349Z,64.7
2022-10-09T13:01:11.362Z,65.9
2022-10-09T13:03:13.027Z,66
2022-10-09T13:05:14.849Z,67.6
2022-10-09T13:07:16.693Z,68.7
2022-10-09T13:09:18.538Z,69.5
2022-10-09T13:11:20.383Z,70
2022-10-09T13:13:27.039Z,71.5
2022-10-09T13:15:28.853Z,71.3
2022-10-09T13:19:32.518Z,72.2
2022-10-09T13:21:35.367Z,72.1
2022-10-09T13:23:36.201Z,71.7
2022-10-09T13:25:38.027Z,71.8
2022-10-09T13:27:43.119Z,71.6
2022-10-09T13:29:44.963Z,71.7
2022-10-09T13:31:46.785Z,72.1
2022-10-09T13:32:49.325Z,74.6
2022-10-09T13:34:51.185Z,74.6
2022-10-09T13:36:53.019Z,76
2022-10-09T13:38:54.841Z,76.1
2022-10-09T13:40:57.788Z,77.6
2022-10-09T13:42:59.647Z,78
2022-10-09T13:45:01.469Z,78.1
2022-10-09T13:47:03.316Z,78.1
2022-10-09T13:49:05.170Z,78
2022-10-09T13:51:07.054Z,78.3
2022-10-09T13:53:08.834Z,77.6
2022-10-09T13:55:13.949Z,77.6
2022-10-09T13:57:15.777Z,75.8
2022-10-09T13:59:17.625Z,73.9
2022-10-09T14:01:19.515Z,74.3
2022-10-09T14:03:21.304Z,73.8
2022-10-09T14:05:23.297Z,73.8
2022-10-09T14:07:24.979Z,73.5
2022-10-09T14:09:30.092Z,69
2022-10-09T14:11:31.928Z,68.7
2022-10-09T14:13:33.767Z,67.1
2022-10-09T14:15:35.589Z,67.2
2022-10-09T14:19:39.278Z,66.9
2022-10-09T14:21:41.126Z,67.1
2022-10-09T14:23:46.222Z,67.2
2022-10-09T14:25:48.055Z,67.3
2022-10-09T14:27:49.919Z,67
2022-10-09T14:30:18.599Z,66.4
2022-10-09T14:32:20.454Z,66.7
2022-10-09T14:34:22.345Z,66.6
2022-10-09T14:36:27.405Z,66.9
2022-10-09T14:38:29.255Z,66.9
2022-10-09T14:40:31.111Z,67.4
2022-10-09T14:42:32.954Z,67.9
2022-10-09T14:44:34.812Z,68.4
2022-10-09T14:46:36.631Z,69.8
2022-10-09T14:48:38.487Z,70
2022-10-09T14:50:43.573Z,72
2022-10-09T14:52:45.411Z,72.2
2022-10-09T14:54:47.260Z,72.4
2022-10-09T14:56:49.116Z,72.5
2022-10-09T14:58:50.956Z,72.3
2022-10-09T15:00:52.821Z,72.2
2022-10-09T15:02:56.427Z,72.2
2022-10-09T15:04:59.753Z,72
2022-10-09T15:07:01.599Z,72.1
2022-10-09T15:09:05.866Z,71.7
2022-10-09T15:11:05.285Z,71.2
2022-10-09T15:13:07.116Z,71
2022-10-09T15:15:08.971Z,70.6
2022-10-09T15:17:10.805Z,70.4
2022-10-09T15:19:15.905Z,70.6
2022-10-09T15:21:17.741Z,70.9
2022-10-09T15:23:19.578Z,71.1
2022-10-09T15:24:22.148Z,71.5
2022-10-09T15:26:23.981Z,71.6
2022-10-09T15:28:25.884Z,71.8
2022-10-09T15:30:27.680Z,71.3
2022-10-09T15:32:32.777Z,70.6
2022-10-09T15:34:36.541Z,70
2022-10-09T15:36:36.454Z,68.5
2022-10-09T15:38:38.303Z,68.3
2022-10-09T15:40:40.166Z,67.8
2022-10-09T15:42:41.985Z,66.7
2022-10-09T15:44:43.805Z,66.6
2022-10-09T15:46:48.933Z,68.8
2022-10-09T15:48:50.759Z,69.6
2022-10-09T15:50:52.622Z,71.3
2022-10-09T15:52:54.441Z,72.4
2022-10-09T15:54:56.276Z,73.9
2022-10-09T15:56:58.124Z,75.2
2022-10-09T15:58:59.969Z,75.3
2022-10-09T16:01:05.075Z,76.7
2022-10-09T16:03:06.911Z,77
2022-10-09T16:05:08.752Z,77.4
2022-10-09T16:07:10.586Z,78.5
2022-10-09T16:09:12.447Z,79.3
2022-10-09T16:11:14.302Z,80.8
2022-10-09T16:13:16.139Z,82
2022-10-09T16:17:23.072Z,84.3
2022-10-09T16:19:24.932Z,84.8
2022-10-09T16:20:27.475Z,85.8
2022-10-09T16:22:29.306Z,87.2
2022-10-09T16:24:31.141Z,88.5
2022-10-09T16:26:32.996Z,88.6
2022-10-09T16:28:38.160Z,90
2022-10-09T16:30:39.934Z,90.5
2022-10-09T16:34:43.616Z,91.8
2022-10-09T16:36:45.429Z,92.2
2022-10-09T16:38:47.291Z,92.6
2022-10-09T16:42:54.235Z,94.5
2022-10-09T16:44:56.052Z,94.9
2022-10-09T16:46:57.914Z,95.4
2022-10-09T16:53:03.473Z,97.9
2022-10-09T16:55:05.336Z,98.3
2022-10-09T16:59:12.254Z,99.5
2022-10-09T17:01:14.219Z,99.8
2022-10-09T17:03:15.940Z,99.9
2022-10-09T17:05:17.800Z,99.9
2022-10-09T17:07:19.627Z,99.9
2022-10-09T17:09:21.469Z,99.9
2022-10-09T17:11:26.571Z,99.9
2022-10-09T17:13:28.414Z,99.9
2022-10-09T17:16:32.804Z,99.9
2022-10-09T17:18:34.630Z,99.9
2022-10-09T17:20:36.477Z,99.9
2022-10-09T17:22:38.311Z,99.9
2022-10-09T17:24:43.379Z,99.9
2022-10-09T17:26:45.231Z,99.9
2022-10-09T17:28:47.108Z,99.9
2022-10-09T17:30:48.901Z,99.9
2022-10-09T17:32:51.163Z,99.9
2022-10-09T17:34:52.586Z,99.9
2022-10-09T17:36:54.405Z,99.9
2022-10-09T17:38:59.515Z,99.9
2022-10-09T17:41:01.336Z,99.9
2022-10-09T17:43:03.187Z,99.9
2022-10-09T17:45:05.031Z,99.9
2022-10-09T17:53:15.634Z,99.9
2022-10-09T18:01:23.049Z,99.9
2022-10-09T18:03:24.792Z,99.9
2022-10-09T18:05:26.610Z,99.9
2022-10-09T18:07:31.697Z,99.9
2022-10-09T18:09:33.531Z,99.9
2022-10-09T18:11:35.370Z,99.9
2022-10-09T18:14:04.104Z,99.9
2022-10-09T18:16:05.902Z,99.9
2022-10-09T18:18:07.759Z,99.9
2022-10-09T18:20:12.815Z,99.9
2022-10-09T18:22:14.626Z,99.9
2022-10-09T18:24:16.470Z,99.9
2022-10-09T18:26:18.268Z,99.9
2022-10-09T18:28:20.154Z,99.9
2022-10-09T18:30:21.934Z,99.9
2022-10-09T18:32:23.742Z,99.9
2022-10-09T18:34:28.787Z,99.9
2022-10-09T18:36:30.612Z,99.9
2022-10-09T18:38:32.453Z,99.9
2022-10-09T18:40:34.237Z,99.9
2022-10-09T18:42:36.060Z,99.9
2022-10-09T18:44:37.873Z,99.9
2022-10-09T18:46:39.689Z,99.9
2022-10-09T18:48:44.761Z,99.9
2022-10-09T18:50:46.563Z,99.9
2022-10-09T18:52:48.666Z,99.9
2022-10-09T18:54:50.181Z,99.9
2022-10-09T18:56:52.018Z,99.9
2022-10-09T18:58:53.812Z,99.9
2022-10-09T19:00:55.703Z,99.9
2022-10-09T19:03:00.651Z,99.9
2022-10-09T19:05:04.031Z,99.9
2022-10-09T19:07:05.769Z,99.9
2022-10-09T19:14:13.719Z,99.9
2022-10-09T19:16:18.747Z,99.9
2022-10-09T19:18:20.557Z,99.9
2022-10-09T19:20:22.350Z,99.9
2022-10-09T19:22:24.257Z,99.9
2022-10-09T19:24:25.956Z,99.9
2022-10-09T19:26:27.770Z,99.9
2022-10-09T19:28:29.595Z,99.9
2022-10-09T19:30:34.597Z,99.9
2022-10-09T19:32:36.396Z,99.9
2022-10-09T19:34:38.190Z,99.9
2022-10-09T19:36:39.998Z,99.9
2022-10-09T19:38:41.782Z,99.9
2022-10-09T19:40:43.599Z,99.9
2022-10-09T19:42:45.386Z,99.9
2022-10-09T19:44:50.755Z,99.9
2022-10-09T19:46:52.208Z,99.9
2022-10-09T19:48:53.994Z,99.9
2022-10-09T19:50:55.808Z,99.9
2022-10-09T19:52:57.623Z,99.9
2022-10-09T19:54:59.413Z,99.9
2022-10-09T19:57:01.208Z,99.9
2022-10-09T19:59:06.237Z,99.9
2022-10-09T20:01:08.030Z,99.9
2022-10-09T20:03:09.811Z,99.9
2022-10-09T20:04:12.312Z,99.9
2022-10-09T20:06:14.085Z,99.9
2022-10-09T20:14:24.484Z,99.9
2022-10-09T20:16:26.281Z,99.9
2022-10-09T20:22:31.631Z,99.9
2022-10-09T20:24:33.427Z,99.9
2022-10-09T20:26:42.796Z,99.9
2022-10-09T20:30:42.003Z,99.9
2022-10-09T20:32:43.771Z,99.9
2022-10-09T20:34:45.563Z,99.9
2022-10-09T20:36:47.341Z,99.9
2022-10-09T20:40:54.124Z,99.9
2022-10-09T20:42:55.911Z,99.9
2022-10-09T20:49:01.234Z,99.9
2022-10-09T20:51:03.011Z,99.9
2022-10-09T20:53:04.786Z,99.9
2022-10-09T20:55:09.785Z,99.9
2022-10-09T20:57:11.561Z,99.9
2022-10-09T20:59:13.326Z,99.9
2022-10-09T21:00:15.833Z,99.9
2022-10-09T21:06:21.159Z,99.9
2022-10-09T21:08:26.138Z,99.9
2022-10-09T21:10:27.928Z,99.9
2022-10-09T21:12:29.691Z,99.9
2022-10-09T21:14:31.459Z,99.9
2022-10-09T21:16:33.208Z,99.9
2022-10-09T21:20:36.752Z,99.9
2022-10-09T21:22:41.736Z,99.9
2022-10-09T21:24:43.510Z,99.9
2022-10-09T21:26:45.268Z,99.9
2022-10-09T21:28:47.026Z,99.9
2022-10-09T21:30:48.941Z,99.9
2022-10-09T21:32:50.776Z,99.9
2022-10-09T21:34:52.310Z,99.9
2022-10-09T21:37:23.988Z,99.9
2022-10-09T21:38:59.083Z,99.9
2022-10-09T21:41:00.858Z,99.9
2022-10-09T21:43:02.620Z,99.9
2022-10-09T21:45:04.422Z,99.9
2022-10-09T21:47:06.133Z,99.9
2022-10-09T21:49:07.950Z,99.9
2022-10-09T21:51:12.900Z,99.9
2022-10-09T21:53:14.676Z,99.9
2022-10-09T21:55:16.423Z,99.9
2022-10-09T21:57:45.285Z,99.9
2022-10-09T21:59:46.875Z,99.9
2022-10-09T22:03:53.658Z,99.9
2022-10-09T22:05:55.423Z,99.9
2022-10-09T22:07:57.187Z,99.9
2022-10-09T22:09:58.963Z,99.9
2022-10-09T22:12:00.705Z,99.9
2022-10-09T22:14:02.469Z,99.9
2022-10-09T22:16:04.244Z,99.9
2022-10-09T22:18:09.221Z,99.9
2022-10-09T22:20:11.023Z,99.9
2022-10-09T22:22:12.764Z,99.9
2022-10-09T22:24:14.504Z,99.9
2022-10-09T22:26:16.271Z,99.9
2022-10-09T22:28:18.079Z,99.9
2022-10-09T22:30:19.771Z,99.9
2022-10-09T22:32:24.778Z,99.9
2022-10-09T22:38:30.017Z,99.9
2022-10-09T22:40:31.762Z,99.9
2022-10-09T22:42:33.515Z,99.9
2022-10-09T22:44:35.247Z,99.9
2022-10-09T22:46:40.242Z,99.9
2022-10-09T22:48:41.996Z,99.9
2022-10-09T22:51:46.232Z,99.9
2022-10-09T22:53:47.989Z,99.9
2022-10-09T22:55:49.719Z,99.9
2022-10-09T22:57:51.469Z,99.9
2022-10-09T22:59:56.446Z,99.9
2022-10-09T23:01:58.201Z,99.9
2022-10-09T23:03:59.920Z,99.9
2022-10-09T23:06:01.694Z,99.9
2022-10-09T23:08:03.408Z,99.9
2022-10-09T23:10:05.173Z,99.9
2022-10-09T23:12:06.880Z,99.9
2022-10-09T23:14:11.847Z,99.9
2022-10-09T23:16:13.577Z,99.9
2022-10-09T23:18:15.334Z,99.9
2022-10-09T23:20:17.061Z,99.9
2022-10-09T23:22:18.806Z,99.9
2022-10-09T23:24:20.533Z,99.9
2022-10-09T23:26:22.290Z,99.9
2022-10-09T23:28:27.303Z,99.9
2022-10-09T23:30:28.998Z,99.9
2022-10-09T23:32:30.731Z,99.9
2022-10-09T23:34:32.485Z,99.9
2022-10-09T23:36:34.227Z,99.9
2022-10-09T23:38:36.002Z,99.9
2022-10-09T23:40:37.730Z,99.9
2022-10-09T23:42:42.718Z,99.9
2022-10-09T23:44:44.444Z,99.9
2022-10-09T23:46:46.179Z,99.9
2022-10-09T23:49:50.417Z,99.9
2022-10-09T23:51:52.141Z,99.9
2022-10-09T23:58:00.610Z,99.9
